Wetterdaten: aktuell Mittwoch, 21.04.2021 10:35
Datum Zeit Temp. A. Feuchte A. Luftdruck Regen Wind Richtung Richtung Taupunkt Windchill Windben
21.04.2021 10:35 9,2 C 69 % 1016,0 hPa 0,0 l/m 7,4 km/h (2 Bft) S-SW 209 3,8 C 8,4 C 11,3 km/h (2 Bft)
21.04.2021 10:30 9,3 C 68 % 1016,0 hPa 0,0 l/m 4,5 km/h (1 Bft) NO 42 3,7 C 9,3 C 14,5 km/h (3 Bft)
21.04.2021 10:25 9,3 C 69 % 1015,9 hPa 0,0 l/m 2,4 km/h (1 Bft) S-SW 200 3,9 C 9,3 C 9,7 km/h (2 Bft)
21.04.2021 10:20 9,1 C 71 % 1016,0 hPa 0,0 l/m 1,5 km/h (1 Bft) N-NW 336 4,1 C 9,1 C 11,3 km/h (2 Bft)
21.04.2021 10:15 9,1 C 71 % 1015,9 hPa 0,0 l/m 4,6 km/h (1 Bft) NW 321 4,1 C 9,1 C 14,5 km/h (3 Bft)
21.04.2021 10:10 8,9 C 72 % 1015,9 hPa 0,0 l/m 4,4 km/h (1 Bft) S-SW 202 4,1 C 8,9 C 12,9 km/h (3 Bft)
21.04.2021 10:05 8,7 C 72 % 1016,0 hPa 0,0 l/m 5,5 km/h (1 Bft) S-SW 202 3,9 C 8,7 C 12,9 km/h (3 Bft)
21.04.2021 10:00 8,6 C 71 % 1015,9 hPa 0,0 l/m 3,2 km/h (1 Bft) SW 227 3,6 C 8,6 C 8,0 km/h (2 Bft)
21.04.2021 09:55 8,3 C 74 % 1016,0 hPa 0,0 l/m 6,2 km/h (2 Bft) S 181 3,9 C 8,3 C 11,3 km/h (2 Bft)
21.04.2021 09:50 8,3 C 75 % 1015,8 hPa 0,0 l/m 5,6 km/h (1 Bft) SW 216 4,1 C 8,3 C 11,3 km/h (2 Bft)
21.04.2021 09:45 8,2 C 77 % 1015,8 hPa 0,0 l/m 2,3 km/h (1 Bft) W-SW 254 4,4 C 8,2 C 6,4 km/h (2 Bft)
21.04.2021 09:40 8,2 C 77 % 1015,8 hPa 0,0 l/m 1,8 km/h (1 Bft) W-NW 290 4,4 C 8,2 C 8,0 km/h (2 Bft)
21.04.2021 09:35 7,9 C 77 % 1015,9 hPa 0,0 l/m 5,6 km/h (1 Bft) S-SW 193 4,1 C 7,9 C 11,3 km/h (2 Bft)
21.04.2021 09:30 7,8 C 79 % 1015,9 hPa 0,0 l/m 2,7 km/h (1 Bft) W 276 4,4 C 7,8 C 11,3 km/h (2 Bft)
21.04.2021 09:25 7,8 C 81 % 1015,9 hPa 0,0 l/m 3,1 km/h (1 Bft) S-SW 205 4,7 C 7,8 C 9,7 km/h (2 Bft)
21.04.2021 09:20 7,6 C 82 % 1015,9 hPa 0,0 l/m 3,8 km/h (1 Bft) W-SW 247 4,7 C 7,6 C 9,7 km/h (2 Bft)
21.04.2021 09:15 7,4 C 83 % 1015,9 hPa 0,0 l/m 2,8 km/h (1 Bft) W 271 4,7 C 7,4 C 12,9 km/h (3 Bft)
21.04.2021 09:10 7,2 C 85 % 1015,9 hPa 0,0 l/m 4,1 km/h (1 Bft) W-NW 302 4,9 C 7,2 C 11,3 km/h (2 Bft)
21.04.2021 09:05 6,9 C 90 % 1015,9 hPa 0,0 l/m 3,5 km/h (1 Bft) W-NW 288 5,4 C 6,9 C 8,0 km/h (2 Bft)
21.04.2021 09:00 6,7 C 95 % 1015,9 hPa 0,0 l/m 3,8 km/h (1 Bft) W-NW 286 6,0 C 6,7 C 12,9 km/h (3 Bft)
21.04.2021 08:55 6,3 C 97 % 1015,8 hPa 0,0 l/m 2,6 km/h (1 Bft) W-NW 283 5,9 C 6,3 C 4,8 km/h (1 Bft)
21.04.2021 08:50 5,9 C 97 % 1015,8 hPa 0,0 l/m 2,0 km/h (1 Bft) W-SW 252 5,5 C 5,9 C 8,0 km/h (2 Bft)
21.04.2021 08:45 5,5 C 98 % 1015,8 hPa 0,0 l/m 2,2 km/h (1 Bft) W-SW 248 5,2 C 5,5 C 4,8 km/h (1 Bft)
21.04.2021 08:40 5,1 C 98 % 1015,8 hPa 0,0 l/m 2,4 km/h (1 Bft) W 274 4,8 C 5,1 C 12,9 km/h (3 Bft)
21.04.2021 08:35 4,8 C 98 % 1015,8 hPa 0,0 l/m 0,3 km/h (0 Bft) S 179 4,5 C 4,8 C 3,2 km/h (1 Bft)
21.04.2021 08:30 3,8 C 98 % 1015,9 hPa 0,0 l/m 0,1 km/h (0 Bft) S 179 3,5 C 3,8 C 1,6 km/h (1 Bft)
21.04.2021 08:25 3,4 C 98 % 1015,9 hPa 0,0 l/m 0,0 km/h (0 Bft) S 179 3,1 C 3,4 C 1,6 km/h (1 Bft)
21.04.2021 08:20 3,2 C 97 % 1015,9 hPa 0,0 l/m 0,3 km/h (0 Bft) S 179 2,8 C 3,2 C 3,2 km/h (1 Bft)
21.04.2021 08:15 2,8 C 97 % 1015,9 hPa 0,0 l/m 0,0 km/h (0 Bft) S 179 2,4 C 2,8 C 0,0 km/h (0 Bft)
21.04.2021 08:10 2,2 C 97 % 1015,9 hPa 0,0 l/m 0,0 km/h (0 Bft) S 179 1,8 C 2,2 C 0,0 km/h (0 Bft)
21.04.2021 08:05 2,0 C 97 % 1015,8 hPa 0,0 l/m 0,0 km/h (0 Bft) S 179 1,6 C 2,0 C 0,0 km/h (0 Bft)
21.04.2021 08:00 1,7 C 97 % 1015,9 hPa 0,0 l/m 0,0 km/h (0 Bft) S 179 1,3 C 1,7 C 0,0 km/h (0 Bft)
21.04.2021 07:55 1,3 C 97 % 1015,8 hPa 0,0 l/m 0,0 km/h (0 Bft) S 179 0,9 C 1,3 C 0,0 km/h (0 Bft)
21.04.2021 07:50 1,4 C 97 % 1015,8 hPa 0,0 l/m 0,0 km/h (0 Bft) S 179 1,0 C 1,4 C 0,0 km/h (0 Bft)
21.04.2021 07:45 1,1 C 97 % 1015,8 hPa 0,0 l/m 0,0 km/h (0 Bft) S 179 0,7 C 1,1 C 0,0 km/h (0 Bft)
21.04.2021 07:40 0,7 C 97 % 1015,8 hPa 0,0 l/m 0,0 km/h (0 Bft) S 179 0,3 C 0,7 C 0,0 km/h (0 Bft)
21.04.2021 07:35 0,4 C 97 % 1015,8 hPa 0,0 l/m 0,0 km/h (0 Bft) S 179 -0,0 C 0,4 C 0,0 km/h (0 Bft)
21.04.2021 07:30 0,3 C 97 % 1015,8 hPa 0,0 l/m 0,0 km/h (0 Bft) S 179 -0,1 C 0,3 C 0,0 km/h (0 Bft)
21.04.2021 07:25 0,4 C 97 % 1015,7 hPa 0,0 l/m 0,0 km/h (0 Bft) S 179 -0,0 C 0,4 C 0,0 km/h (0 Bft)
21.04.2021 07:20 0,4 C 97 % 1015,8 hPa 0,0 l/m 0,0 km/h (0 Bft) S 179 -0,0 C 0,4 C 0,0 km/h (0 Bft)
21.04.2021 07:15 0,4 C 97 % 1015,8 hPa 0,0 l/m 0,0 km/h (0 Bft) S 179 -0,0 C 0,4 C 0,0 km/h (0 Bft)
21.04.2021 07:10 0,1 C 97 % 1015,8 hPa 0,0 l/m 0,0 km/h (0 Bft) S 179 -0,3 C 0,1 C 0,0 km/h (0 Bft)
21.04.2021 07:05 -0,2 C 97 % 1015,8 hPa 0,0 l/m 0,0 km/h (0 Bft) S 179 -0,6 C -0,2 C 0,0 km/h (0 Bft)
21.04.2021 07:00 -0,2 C 97 % 1015,7 hPa 0,0 l/m 0,0 km/h (0 Bft) S 179 -0,6 C -0,2 C 0,0 km/h (0 Bft)
21.04.2021 06:55 -0,3 C 97 % 1015,7 hPa 0,0 l/m 0,0 km/h (0 Bft) S 179 -0,7 C -0,3 C 0,0 km/h (0 Bft)
21.04.2021 06:50 -0,3 C 97 % 1015,7 hPa 0,0 l/m 0,0 km/h (0 Bft) S 179 -0,7 C -0,3 C 0,0 km/h (0 Bft)
21.04.2021 06:45 -0,6 C 97 % 1015,7 hPa 0,0 l/m 0,0 km/h (0 Bft) S 179 -1,0 C -0,6 C 0,0 km/h (0 Bft)
21.04.2021 06:40 -0,8 C 97 % 1015,8 hPa 0,0 l/m 0,0 km/h (0 Bft) S 179 -1,2 C -0,8 C 0,0 km/h (0 Bft)
21.04.2021 06:35 -0,7 C 97 % 1015,7 hPa 0,0 l/m 0,0 km/h (0 Bft) S 179 -1,1 C -0,7 C 0,0 km/h (0 Bft)
21.04.2021 06:30 -0,6 C 97 % 1015,8 hPa 0,0 l/m 0,1 km/h (0 Bft) S 179 -1,0 C -0,6 C 1,6 km/h (1 Bft)
21.04.2021 06:25 -0,3 C 97 % 1015,7 hPa 0,0 l/m 0,2 km/h (0 Bft) S 179 -0,7 C -0,3 C 3,2 km/h (1 Bft)
21.04.2021 06:20 -0,4 C 97 % 1015,7 hPa 0,0 l/m 0,0 km/h (0 Bft) S 179 -0,8 C -0,4 C 0,0 km/h (0 Bft)
21.04.2021 06:15 -0,5 C 97 % 1015,6 hPa 0,0 l/m 0,0 km/h (0 Bft) S 179 -0,9 C -0,5 C 0,0 km/h (0 Bft)
21.04.2021 06:10 -0,5 C 97 % 1015,6 hPa 0,0 l/m 0,0 km/h (0 Bft) S 179 -0,9 C -0,5 C 0,0 km/h (0 Bft)
21.04.2021 06:05 -0,6 C 97 % 1015,7 hPa 0,0 l/m 0,0 km/h (0 Bft) S 179 -1,0 C -0,6 C 0,0 km/h (0 Bft)
21.04.2021 06:00 -0,6 C 97 % 1015,7 hPa 0,0 l/m 0,0 km/h (0 Bft) S 179 -1,0 C -0,6 C 0,0 km/h (0 Bft)
21.04.2021 05:55 -0,7 C 97 % 1015,7 hPa 0,0 l/m 0,0 km/h (0 Bft) S 179 -1,1 C -0,7 C 0,0 km/h (0 Bft)
21.04.2021 05:50 -0,7 C 97 % 1015,7 hPa 0,0 l/m 0,0 km/h (0 Bft) S 179 -1,1 C -0,7 C 0,0 km/h (0 Bft)
21.04.2021 05:45 -0,6 C 97 % 1015,6 hPa 0,0 l/m 0,0 km/h (0 Bft) S 179 -1,0 C -0,6 C 0,0 km/h (0 Bft)
21.04.2021 05:40 -0,6 C 97 % 1015,7 hPa 0,0 l/m 0,0 km/h (0 Bft) S 179 -1,0 C -0,6 C 0,0 km/h (0 Bft)
21.04.2021 05:35 -0,6 C 97 % 1015,7 hPa 0,0 l/m 0,0 km/h (0 Bft) S 179 -1,0 C -0,6 C 0,0 km/h (0 Bft)
21.04.2021 05:30 -0,6 C 97 % 1015,8 hPa 0,0 l/m 0,0 km/h (0 Bft) S 179 -1,0 C -0,6 C 0,0 km/h (0 Bft)
21.04.2021 05:25 -0,6 C 97 % 1015,8 hPa 0,0 l/m 0,0 km/h (0 Bft) S 179 -1,0 C -0,6 C 0,0 km/h (0 Bft)
21.04.2021 05:20 -0,7 C 97 % 1015,8 hPa 0,0 l/m 0,0 km/h (0 Bft) S 179 -1,1 C -0,7 C 0,0 km/h (0 Bft)
21.04.2021 05:15 -0,8 C 97 % 1015,8 hPa 0,0 l/m 0,0 km/h (0 Bft) S 179 -1,2 C -0,8 C 0,0 km/h (0 Bft)
21.04.2021 05:10 -0,7 C 97 % 1015,8 hPa 0,0 l/m 0,0 km/h (0 Bft) S 179 -1,1 C -0,7 C 0,0 km/h (0 Bft)
21.04.2021 05:05 -0,6 C 97 % 1015,8 hPa 0,0 l/m 0,0 km/h (0 Bft) S 179 -1,0 C -0,6 C 0,0 km/h (0 Bft)
21.04.2021 05:00 -0,6 C 97 % 1015,7 hPa 0,0 l/m 0,0 km/h (0 Bft) S 179 -1,0 C -0,6 C 0,0 km/h (0 Bft)
21.04.2021 04:55 -0,5 C 97 % 1015,7 hPa 0,0 l/m 0,0 km/h (0 Bft) S 179 -0,9 C -0,5 C 0,0 km/h (0 Bft)
21.04.2021 04:50 -0,4 C 97 % 1015,7 hPa 0,0 l/m 0,0 km/h (0 Bft) S 179 -0,8 C -0,4 C 0,0 km/h (0 Bft)
21.04.2021 04:45 -0,4 C 97 % 1015,7 hPa 0,0 l/m 0,0 km/h (0 Bft) S 179 -0,8 C -0,4 C 0,0 km/h (0 Bft)
21.04.2021 04:40 -0,4 C 97 % 1015,6 hPa 0,0 l/m 0,0 km/h (0 Bft) S 179 -0,8 C -0,4 C 0,0 km/h (0 Bft)
21.04.2021 04:35 -0,7 C 97 % 1015,7 hPa 0,0 l/m 0,0 km/h (0 Bft) S 179 -1,1 C -0,7 C 0,0 km/h (0 Bft)
21.04.2021 04:30 -0,6 C 97 % 1015,7 hPa 0,0 l/m 0,0 km/h (0 Bft) S 179 -1,0 C -0,6 C 0,0 km/h (0 Bft)
21.04.2021 04:25 -0,6 C 97 % 1015,8 hPa 0,0 l/m 0,0 km/h (0 Bft) S 179 -1,0 C -0,6 C 0,0 km/h (0 Bft)
21.04.2021 04:20 -0,7 C 97 % 1015,8 hPa 0,0 l/m 0,0 km/h (0 Bft) S 179 -1,1 C -0,7 C 0,0 km/h (0 Bft)
21.04.2021 04:15 -0,7 C 97 % 1015,8 hPa 0,0 l/m 0,0 km/h (0 Bft) S 179 -1,1 C -0,7 C 0,0 km/h (0 Bft)
21.04.2021 04:10 -0,6 C 97 % 1015,8 hPa 0,0 l/m 0,0 km/h (0 Bft) S 179 -1,0 C -0,6 C 0,0 km/h (0 Bft)
21.04.2021 04:05 -0,7 C 97 % 1015,8 hPa 0,0 l/m 0,0 km/h (0 Bft) S 179 -1,1 C -0,7 C 0,0 km/h (0 Bft)
21.04.2021 04:00 -0,7 C 97 % 1015,8 hPa 0,0 l/m 0,0 km/h (0 Bft) S 179 -1,1 C -0,7 C 0,0 km/h (0 Bft)
21.04.2021 03:55 -0,5 C 97 % 1015,7 hPa 0,0 l/m 0,0 km/h (0 Bft) S 179 -0,9 C -0,5 C 0,0 km/h (0 Bft)
21.04.2021 03:50 -0,6 C 97 % 1015,8 hPa 0,0 l/m 0,0 km/h (0 Bft) S 179 -1,0 C -0,6 C 0,0 km/h (0 Bft)
21.04.2021 03:45 -0,6 C 97 % 1015,8 hPa 0,0 l/m 0,0 km/h (0 Bft) S 179 -1,0 C -0,6 C 0,0 km/h (0 Bft)
21.04.2021 03:40 -0,6 C 97 % 1015,8 hPa 0,0 l/m 0,0 km/h (0 Bft) S 179 -1,0 C -0,6 C 0,0 km/h (0 Bft)
21.04.2021 03:35 -0,5 C 97 % 1015,9 hPa 0,0 l/m 0,0 km/h (0 Bft) S 179 -0,9 C -0,5 C 0,0 km/h (0 Bft)
21.04.2021 03:30 -0,5 C 97 % 1015,9 hPa 0,0 l/m 0,0 km/h (0 Bft) S 179 -0,9 C -0,5 C 0,0 km/h (0 Bft)
21.04.2021 03:25 -0,4 C 97 % 1016,0 hPa 0,0 l/m 0,0 km/h (0 Bft) S 179 -0,8 C -0,4 C 0,0 km/h (0 Bft)
21.04.2021 03:20 -0,2 C 97 % 1016,0 hPa 0,0 l/m 0,0 km/h (0 Bft) S 179 -0,6 C -0,2 C 0,0 km/h (0 Bft)
21.04.2021 03:15 -0,3 C 97 % 1015,9 hPa 0,0 l/m 0,0 km/h (0 Bft) S 179 -0,7 C -0,3 C 0,0 km/h (0 Bft)
21.04.2021 03:10 -0,4 C 97 % 1015,9 hPa 0,0 l/m 0,0 km/h (0 Bft) S 179 -0,8 C -0,4 C 0,0 km/h (0 Bft)
21.04.2021 03:05 -0,3 C 97 % 1016,0 hPa 0,0 l/m 0,0 km/h (0 Bft) S 179 -0,7 C -0,3 C 0,0 km/h (0 Bft)
21.04.2021 03:00 -0,4 C 97 % 1016,1 hPa 0,0 l/m 0,0 km/h (0 Bft) S 179 -0,8 C -0,4 C 0,0 km/h (0 Bft)
21.04.2021 02:55 -0,4 C 97 % 1016,1 hPa 0,0 l/m 0,0 km/h (0 Bft) S 179 -0,8 C -0,4 C 0,0 km/h (0 Bft)
21.04.2021 02:50 -0,4 C 96 % 1016,0 hPa 0,0 l/m 0,0 km/h (0 Bft) S 179 -1,0 C -0,4 C 0,0 km/h (0 Bft)
21.04.2021 02:45 -0,4 C 96 % 1016,1 hPa 0,0 l/m 0,0 km/h (0 Bft) S 179 -1,0 C -0,4 C 0,0 km/h (0 Bft)
21.04.2021 02:40 -0,3 C 97 % 1016,2 hPa 0,0 l/m 0,0 km/h (0 Bft) S 179 -0,7 C -0,3 C 0,0 km/h (0 Bft)
21.04.2021 02:35 -0,1 C 97 % 1016,2 hPa 0,0 l/m 0,0 km/h (0 Bft) S 179 -0,5 C -0,1 C 0,0 km/h (0 Bft)
21.04.2021 02:30 -0,1 C 97 % 1016,2 hPa 0,0 l/m 0,0 km/h (0 Bft) S 179 -0,5 C -0,1 C 0,0 km/h (0 Bft)
21.04.2021 02:25 -0,1 C 96 % 1016,3 hPa 0,0 l/m 0,0 km/h (0 Bft) S 179 -0,7 C -0,1 C 0,0 km/h (0 Bft)
21.04.2021 02:20 -0,2 C 96 % 1016,3 hPa 0,0 l/m 0,0 km/h (0 Bft) S 179 -0,8 C -0,2 C 0,0 km/h (0 Bft)
_ Min-Zeit 05:15 13:25 19:10 - 15:40 - - 05:15 05:15 15:40
Minimum _ -0,8 C 61 % 1015,5 hPa - 0,0 km/h (0 Bft) - - -1,2 C -0,8 C 0,0 km/h (0 Bft)
_ Max-Zeit 13:35 08:25 11:00 15:05 10:35 - - 18:05 13:30 10:15
Maximum _ 11,1 C 98 % 1017,1 hPa 0,8 l/m 7,4 km/h
S-SW (2 Bft)
- - 6,3 C 10,9 C 14,5 km/h
W-NW (3 Bft)
Durchschnitt _ 4,2 C 90 % 1016,2 hPa #4,4 l/m 1,3 km/h (1 Bft) S - 2,5 C 4,2 C 3,6 km/h (1 Bft)